createdAt,value
2019-04-27T00:04:42.885Z,99.90
2019-04-27T00:07:21.202Z,99.90
2019-04-27T00:09:56.966Z,99.90
2019-04-27T00:12:26.719Z,99.90
2019-04-27T00:14:56.346Z,99.90
2019-04-27T00:17:48.574Z,99.90
2019-04-27T00:20:28.035Z,99.90
2019-04-27T00:23:00.592Z,99.90
2019-04-27T00:25:30.315Z,99.90
2019-04-27T00:27:59.979Z,99.90
2019-04-27T00:30:29.540Z,99.90
2019-04-27T00:32:59.178Z,99.90
2019-04-27T00:35:34.735Z,99.90
2019-04-27T00:38:13.159Z,99.90
2019-04-27T00:40:47.816Z,99.90
2019-04-27T00:43:17.389Z,99.90
2019-04-27T00:45:46.988Z,99.90
2019-04-27T00:48:16.584Z,99.90
2019-04-27T00:50:46.209Z,99.90
2019-04-27T00:53:15.839Z,99.90
2019-04-27T00:56:03.946Z,99.90
2019-04-27T00:58:40.515Z,99.90
2019-04-27T01:01:29.075Z,99.90
2019-04-27T01:04:20.684Z,99.90
2019-04-27T01:06:50.420Z,99.90
2019-04-27T01:09:20.010Z,99.90
2019-04-27T01:11:49.816Z,99.90
2019-04-27T01:14:19.526Z,99.90
2019-04-27T01:16:51.360Z,99.90
2019-04-27T01:19:20.403Z,99.90
2019-04-27T01:21:50.111Z,99.90
2019-04-27T01:24:19.732Z,99.90
2019-04-27T01:27:04.578Z,99.90
2019-04-27T01:29:34.362Z,99.90
2019-04-27T01:32:04.977Z,99.90
2019-04-27T01:34:34.578Z,99.90
2019-04-27T01:37:04.302Z,99.90
2019-04-27T01:39:34.068Z,99.90
2019-04-27T01:42:03.697Z,99.90
2019-04-27T01:44:33.331Z,99.90
2019-04-27T01:47:02.954Z,99.90
2019-04-27T01:49:32.606Z,99.90
2019-04-27T01:52:02.258Z,99.90
2019-04-27T01:54:32.071Z,99.90
2019-04-27T01:57:04.119Z,99.90
2019-04-27T01:59:32.898Z,99.90
2019-04-27T02:02:26.311Z,99.90
2019-04-27T02:05:33.133Z,99.90
2019-04-27T02:08:02.896Z,99.90
2019-04-27T02:10:32.505Z,99.90
2019-04-27T02:13:02.168Z,99.90
2019-04-27T02:15:31.888Z,99.90
2019-04-27T02:18:01.516Z,99.90
2019-04-27T02:20:31.095Z,99.90
2019-04-27T02:23:00.700Z,99.90
2019-04-27T02:25:30.302Z,99.90
2019-04-27T02:28:06.013Z,99.90
2019-04-27T02:31:01.891Z,99.90
2019-04-27T02:33:50.733Z,99.90
2019-04-27T02:36:20.490Z,99.90
2019-04-27T02:38:50.156Z,99.90
2019-04-27T02:41:20.027Z,99.90
2019-04-27T02:44:01.747Z,99.90
2019-04-27T02:46:31.744Z,99.90
2019-04-27T02:49:06.275Z,99.90
2019-04-27T02:51:42.489Z,99.90
2019-04-27T02:54:12.622Z,99.90
2019-04-27T02:56:41.636Z,99.90
2019-04-27T02:59:11.982Z,99.90
2019-04-27T03:01:57.023Z,99.90
2019-04-27T03:04:26.645Z,99.90
2019-04-27T03:06:56.293Z,99.90
2019-04-27T03:09:25.956Z,99.90
2019-04-27T03:11:56.040Z,99.90
2019-04-27T03:14:43.433Z,99.90
2019-04-27T03:17:26.501Z,99.90
2019-04-27T03:20:20.127Z,99.90
2019-04-27T03:22:53.538Z,99.90
2019-04-27T03:25:40.588Z,99.90
2019-04-27T03:28:14.476Z,99.90
2019-04-27T03:30:44.218Z,99.90
2019-04-27T03:33:13.866Z,99.90
2019-04-27T03:35:44.090Z,99.90
2019-04-27T03:38:14.152Z,99.90
2019-04-27T03:40:43.824Z,99.90
2019-04-27T03:43:20.216Z,99.90
2019-04-27T03:45:52.302Z,99.90
2019-04-27T03:48:21.234Z,99.90
2019-04-27T03:50:59.554Z,99.90
2019-04-27T03:53:42.624Z,99.90
2019-04-27T03:56:31.193Z,99.90
2019-04-27T03:59:09.809Z,99.90
2019-04-27T04:01:39.790Z,99.90
2019-04-27T04:04:10.479Z,99.90
2019-04-27T04:06:40.613Z,99.90
2019-04-27T04:09:11.032Z,99.90
2019-04-27T04:12:02.223Z,99.90
2019-04-27T04:14:30.915Z,99.90
2019-04-27T04:17:03.421Z,99.90
2019-04-27T04:19:47.892Z,99.90
2019-04-27T04:22:04.676Z,99.90
2019-04-27T04:24:34.412Z,99.90
2019-04-27T04:27:04.060Z,99.90
2019-04-27T04:29:33.659Z,99.90
2019-04-27T04:32:03.276Z,99.90
2019-04-27T04:34:32.909Z,99.90
2019-04-27T04:37:02.559Z,99.90
2019-04-27T04:39:32.451Z,99.90
2019-04-27T04:42:19.767Z,99.90
2019-04-27T04:45:14.437Z,99.90
2019-04-27T04:47:59.472Z,99.90
2019-04-27T04:50:30.410Z,99.90
2019-04-27T04:53:00.126Z,99.90
2019-04-27T04:55:30.583Z,99.90
2019-04-27T04:58:00.472Z,99.90
2019-04-27T05:00:30.138Z,99.90
2019-04-27T05:02:59.821Z,99.90
2019-04-27T05:05:29.469Z,99.90
2019-04-27T05:08:00.749Z,99.90
2019-04-27T05:10:31.295Z,99.90
2019-04-27T05:13:01.226Z,99.90
2019-04-27T05:15:30.832Z,99.90
2019-04-27T05:18:00.407Z,99.90
2019-04-27T05:20:42.092Z,99.90
2019-04-27T05:23:11.874Z,99.90
2019-04-27T05:25:41.448Z,99.90
2019-04-27T05:28:11.072Z,99.90
2019-04-27T05:30:40.672Z,99.90
2019-04-27T05:33:10.332Z,99.90
2019-04-27T05:35:41.024Z,99.90
2019-04-27T05:38:13.397Z,99.90
2019-04-27T05:40:42.259Z,99.90
2019-04-27T05:43:13.474Z,99.90
2019-04-27T05:46:19.156Z,99.90
2019-04-27T05:48:48.919Z,99.90
2019-04-27T05:51:19.722Z,99.90
2019-04-27T05:53:49.664Z,99.90
2019-04-27T05:56:21.391Z,99.90
2019-04-27T05:58:51.236Z,99.90
2019-04-27T06:01:21.150Z,99.90
2019-04-27T06:03:50.816Z,99.90
2019-04-27T06:06:20.441Z,99.90
2019-04-27T06:08:50.059Z,99.90
2019-04-27T06:11:19.753Z,99.90
2019-04-27T06:13:50.029Z,99.90
2019-04-27T06:16:19.759Z,99.90
2019-04-27T06:18:49.444Z,99.90
2019-04-27T06:21:19.563Z,99.90
2019-04-27T06:23:49.417Z,99.90
2019-04-27T06:26:20.187Z,99.90
2019-04-27T06:28:50.500Z,99.90
2019-04-27T06:31:20.391Z,99.90
2019-04-27T06:33:50.007Z,99.90
2019-04-27T06:36:20.010Z,99.90
2019-04-27T06:38:49.679Z,99.90
2019-04-27T06:41:19.327Z,99.90
2019-04-27T06:43:49.510Z,99.90
2019-04-27T06:46:19.957Z,99.90
2019-04-27T06:48:49.850Z,99.90
2019-04-27T06:51:19.630Z,99.90
2019-04-27T06:53:49.489Z,99.90
2019-04-27T06:56:19.171Z,99.90
2019-04-27T06:58:49.189Z,99.90
2019-04-27T07:01:19.128Z,99.90
2019-04-27T07:03:48.994Z,99.90
2019-04-27T07:06:18.780Z,99.90
2019-04-27T07:08:49.807Z,99.90
2019-04-27T07:11:19.850Z,99.90
2019-04-27T07:13:49.837Z,99.90
2019-04-27T07:17:13.985Z,99.90
2019-04-27T07:21:59.008Z,99.90
2019-04-27T07:24:29.190Z,99.90
2019-04-27T07:26:59.716Z,99.90
2019-04-27T07:29:29.529Z,99.90
2019-04-27T07:31:59.670Z,99.90
2019-04-27T07:34:30.598Z,99.90
2019-04-27T07:37:00.252Z,99.90
2019-04-27T07:39:32.246Z,99.90
2019-04-27T07:42:01.860Z,99.90
2019-04-27T07:44:36.805Z,99.90
2019-04-27T07:47:20.796Z,99.90
2019-04-27T07:49:50.440Z,99.90
2019-04-27T07:52:20.509Z,99.90
2019-04-27T07:54:50.396Z,99.90
2019-04-27T07:57:20.088Z,99.90
2019-04-27T07:59:50.292Z,99.90
2019-04-27T08:02:20.125Z,99.90
2019-04-27T08:04:50.518Z,99.90
2019-04-27T08:07:20.330Z,99.90
2019-04-27T08:09:49.983Z,99.90
2019-04-27T08:12:20.801Z,99.90
2019-04-27T08:14:50.883Z,99.90
2019-04-27T08:17:20.538Z,99.90
2019-04-27T08:19:50.181Z,99.90
2019-04-27T08:22:19.868Z,99.90
2019-04-27T08:24:49.835Z,99.90
2019-04-27T08:27:30.556Z,99.90
2019-04-27T08:30:19.341Z,99.90
2019-04-27T08:32:51.171Z,99.90
2019-04-27T08:35:20.813Z,99.90
2019-04-27T08:37:50.417Z,99.90
2019-04-27T08:40:20.379Z,99.90
2019-04-27T08:42:51.272Z,99.90
2019-04-27T08:45:21.065Z,99.90
2019-04-27T08:47:50.715Z,99.90
2019-04-27T08:50:20.560Z,99.90
2019-04-27T08:52:51.136Z,99.90
2019-04-27T08:55:20.823Z,99.90
2019-04-27T08:57:50.509Z,99.90
2019-04-27T09:00:21.562Z,99.90
2019-04-27T09:02:51.234Z,99.90
2019-04-27T09:05:28.880Z,99.90
2019-04-27T09:08:25.993Z,99.90
2019-04-27T09:11:16.246Z,99.90
2019-04-27T09:13:58.848Z,99.90
2019-04-27T09:16:39.525Z,99.90
2019-04-27T09:19:16.202Z,99.90
2019-04-27T09:22:12.308Z,99.90
2019-04-27T09:24:35.284Z,99.90
2019-04-27T09:27:05.695Z,99.90
2019-04-27T09:29:36.498Z,99.90
2019-04-27T09:32:08.871Z,99.90
2019-04-27T09:34:46.483Z,99.90
2019-04-27T09:37:21.126Z,99.90
2019-04-27T09:39:56.122Z,99.90
2019-04-27T09:42:30.928Z,99.90
2019-04-27T09:45:07.748Z,99.90
2019-04-27T09:47:47.219Z,99.90
2019-04-27T09:50:19.674Z,99.90
2019-04-27T09:52:56.368Z,99.90
2019-04-27T09:55:33.414Z,99.90
2019-04-27T09:58:06.522Z,99.90
2019-04-27T10:00:39.570Z,99.90
2019-04-27T10:03:19.700Z,99.90
2019-04-27T10:05:49.490Z,99.90
2019-04-27T10:08:19.132Z,99.90
2019-04-27T10:10:48.773Z,99.90
2019-04-27T10:13:18.398Z,99.90
2019-04-27T10:15:48.023Z,99.90
2019-04-27T10:18:17.957Z,99.90
2019-04-27T10:20:58.703Z,99.90
2019-04-27T10:23:19.090Z,99.90
2019-04-27T10:25:49.038Z,99.90
2019-04-27T10:28:19.651Z,99.90
2019-04-27T10:30:52.835Z,99.90
2019-04-27T10:33:28.548Z,95.00
2019-04-27T10:35:59.502Z,99.80
2019-04-27T10:38:30.323Z,99.90
2019-04-27T10:41:01.130Z,99.90
2019-04-27T10:43:35.225Z,94.20
2019-04-27T10:46:06.660Z,97.30
2019-04-27T10:48:36.772Z,88.80
2019-04-27T10:51:07.391Z,76.30
2019-04-27T10:53:38.997Z,96.80
2019-04-27T10:56:08.845Z,93.20
2019-04-27T10:58:38.488Z,99.90
2019-04-27T11:01:09.310Z,99.60
2019-04-27T11:04:10.190Z,99.00
2019-04-27T11:06:43.059Z,99.90
2019-04-27T11:09:16.196Z,96.70
2019-04-27T11:11:47.953Z,93.80
2019-04-27T11:14:17.711Z,92.60
2019-04-27T11:16:47.422Z,95.70
2019-04-27T11:19:17.564Z,89.70
2019-04-27T11:21:47.606Z,78.80
2019-04-27T11:24:17.556Z,88.00
2019-04-27T11:26:47.156Z,73.40
2019-04-27T11:29:17.203Z,79.60
2019-04-27T11:31:46.879Z,92.80
2019-04-27T11:34:19.695Z,91.50
2019-04-27T11:37:17.563Z,85.90
2019-04-27T11:39:47.174Z,88.50
2019-04-27T11:42:16.832Z,88.90
2019-04-27T11:44:47.074Z,96.20
2019-04-27T11:47:16.808Z,99.10
2019-04-27T11:49:46.421Z,97.00
2019-04-27T11:52:16.073Z,98.10
2019-04-27T11:54:45.831Z,99.40
2019-04-27T11:57:15.546Z,99.90
2019-04-27T11:59:45.304Z,99.70
2019-04-27T12:02:15.619Z,99.90
2019-04-27T12:04:46.665Z,99.90
2019-04-27T12:07:16.433Z,98.80
2019-04-27T12:09:48.067Z,99.90
2019-04-27T12:12:21.642Z,99.90
2019-04-27T12:14:49.234Z,99.90
2019-04-27T12:17:19.034Z,98.80
2019-04-27T12:19:48.758Z,99.60
2019-04-27T12:22:18.400Z,99.90
2019-04-27T12:24:48.035Z,99.90
2019-04-27T12:27:36.533Z,99.90
2019-04-27T12:30:19.221Z,99.90
2019-04-27T12:32:48.879Z,99.90
2019-04-27T12:35:18.542Z,99.90
2019-04-27T12:37:48.733Z,99.90
2019-04-27T12:40:18.478Z,99.90
2019-04-27T12:42:49.607Z,99.90
2019-04-27T12:45:26.766Z,99.90
2019-04-27T12:47:58.110Z,99.90
2019-04-27T12:50:29.327Z,99.90
2019-04-27T12:53:04.297Z,99.90
2019-04-27T12:56:00.453Z,99.90
2019-04-27T12:58:48.469Z,99.90
2019-04-27T13:01:25.831Z,99.90
2019-04-27T13:03:59.238Z,99.90
2019-04-27T13:06:31.272Z,99.90
2019-04-27T13:09:09.785Z,99.90
2019-04-27T13:11:47.077Z,99.90
2019-04-27T13:14:18.582Z,99.90
2019-04-27T13:17:13.235Z,99.90
2019-04-27T13:19:59.845Z,99.90
2019-04-27T13:22:38.374Z,99.90
2019-04-27T13:25:21.022Z,99.90
2019-04-27T13:28:05.661Z,99.90
2019-04-27T13:30:47.909Z,99.90
2019-04-27T13:33:32.487Z,99.90
2019-04-27T13:36:11.484Z,90.70
2019-04-27T13:38:49.530Z,91.00
2019-04-27T13:41:32.639Z,99.90
2019-04-27T13:44:10.315Z,99.90
2019-04-27T13:47:02.376Z,96.40
2019-04-27T13:49:57.597Z,91.70
2019-04-27T13:52:32.027Z,87.10
2019-04-27T13:55:02.686Z,84.80
2019-04-27T13:57:49.504Z,92.00
2019-04-27T14:00:12.287Z,90.40
2019-04-27T14:02:44.762Z,77.90
2019-04-27T14:05:23.679Z,88.60
2019-04-27T14:08:06.185Z,73.00
2019-04-27T14:10:41.646Z,67.50
2019-04-27T14:13:35.374Z,71.70
2019-04-27T14:16:25.618Z,77.80
2019-04-27T14:19:05.965Z,69.50
2019-04-27T14:21:39.463Z,61.50
2019-04-27T14:24:14.296Z,62.20
2019-04-27T14:26:48.834Z,58.20
2019-04-27T14:29:31.054Z,57.70
2019-04-27T14:32:02.986Z,55.50
2019-04-27T14:34:37.733Z,54.80
2019-04-27T14:37:09.899Z,55.50
2019-04-27T14:39:49.418Z,58.80
2019-04-27T14:42:29.203Z,58.50
2019-04-27T14:45:08.961Z,58.70
2019-04-27T14:47:42.362Z,62.50
2019-04-27T14:50:18.790Z,59.10
2019-04-27T14:53:00.295Z,58.40
2019-04-27T14:55:38.854Z,60.60
2019-04-27T14:58:14.072Z,65.90
2019-04-27T15:00:55.440Z,75.20
2019-04-27T15:03:33.876Z,71.60
2019-04-27T15:06:13.827Z,75.30
2019-04-27T15:08:53.263Z,75.20
2019-04-27T15:11:38.016Z,75.70
2019-04-27T15:14:20.170Z,72.70
2019-04-27T15:16:56.375Z,78.60
2019-04-27T15:19:33.054Z,84.30
2019-04-27T15:22:19.355Z,83.90
2019-04-27T15:25:13.097Z,80.70
2019-04-27T15:27:47.798Z,89.70
2019-04-27T15:30:31.261Z,91.70
2019-04-27T15:33:32.310Z,95.00
2019-04-27T15:36:14.496Z,94.30
2019-04-27T15:38:53.751Z,92.50
2019-04-27T15:41:44.590Z,95.80
2019-04-27T15:44:20.625Z,97.00
2019-04-27T15:46:59.256Z,97.00
2019-04-27T15:49:34.975Z,99.90
2019-04-27T15:52:10.575Z,99.90
2019-04-27T15:54:48.126Z,99.90
2019-04-27T15:57:23.359Z,99.90
2019-04-27T15:59:59.891Z,99.90
2019-04-27T16:02:34.381Z,99.90
2019-04-27T16:05:10.580Z,99.90
2019-04-27T16:07:41.517Z,99.90
2019-04-27T16:10:23.310Z,99.90
2019-04-27T16:13:06.601Z,99.90
2019-04-27T16:15:39.243Z,99.90
2019-04-27T16:18:19.721Z,99.90
2019-04-27T16:20:56.327Z,99.90
2019-04-27T16:23:40.283Z,99.90
2019-04-27T16:26:15.069Z,99.90
2019-04-27T16:28:49.617Z,99.90
2019-04-27T16:31:20.260Z,98.10
2019-04-27T16:33:59.286Z,99.50
2019-04-27T16:36:32.300Z,98.00
2019-04-27T16:39:08.071Z,98.30
2019-04-27T16:41:42.869Z,98.20
2019-04-27T16:44:19.584Z,96.90
2019-04-27T16:47:03.031Z,98.00
2019-04-27T16:49:35.630Z,99.90
2019-04-27T16:52:16.029Z,99.90
2019-04-27T16:54:49.920Z,99.90
2019-04-27T16:57:20.186Z,99.90
2019-04-27T16:59:54.891Z,99.90
2019-04-27T17:02:25.031Z,99.90
2019-04-27T17:04:55.530Z,99.90
2019-04-27T17:07:24.027Z,99.90
2019-04-27T17:10:00.416Z,99.90
2019-04-27T17:12:45.897Z,99.90
2019-04-27T17:15:33.561Z,99.90
2019-04-27T17:18:24.391Z,99.90
2019-04-27T17:20:59.324Z,99.90
2019-04-27T17:23:30.999Z,99.90
2019-04-27T17:26:20.036Z,99.90
2019-04-27T17:28:51.254Z,99.90
2019-04-27T17:31:28.833Z,99.90
2019-04-27T17:34:03.944Z,99.90
2019-04-27T17:36:40.274Z,99.90
2019-04-27T17:39:30.832Z,99.90
2019-04-27T17:42:05.107Z,99.90
2019-04-27T17:44:39.759Z,99.90
2019-04-27T17:47:10.837Z,99.90
2019-04-27T17:49:41.332Z,99.90
2019-04-27T17:52:17.231Z,99.90
2019-04-27T17:54:48.538Z,99.90
2019-04-27T17:57:26.464Z,99.90
2019-04-27T17:59:58.899Z,99.90
2019-04-27T18:02:25.548Z,99.90
2019-04-27T18:04:55.336Z,99.90
2019-04-27T18:07:25.184Z,99.90
2019-04-27T18:09:54.973Z,99.90
2019-04-27T18:12:24.618Z,99.90
2019-04-27T18:14:54.279Z,99.90
2019-04-27T18:17:24.739Z,99.90
2019-04-27T18:19:57.595Z,99.90
2019-04-27T18:22:32.234Z,99.90
2019-04-27T18:25:09.791Z,99.90
2019-04-27T18:27:52.921Z,99.90
2019-04-27T18:30:25.965Z,99.90
2019-04-27T18:32:59.221Z,99.90
2019-04-27T18:35:27.846Z,99.90
2019-04-27T18:38:01.616Z,99.90
2019-04-27T18:40:32.331Z,99.90
2019-04-27T18:43:01.854Z,99.90
2019-04-27T18:45:32.255Z,99.90
2019-04-27T18:48:12.973Z,99.90
2019-04-27T18:50:43.497Z,99.90
2019-04-27T18:53:24.708Z,99.90
2019-04-27T18:55:58.436Z,99.90
2019-04-27T18:58:25.796Z,99.90
2019-04-27T19:00:55.409Z,99.90
2019-04-27T19:03:25.012Z,99.90
2019-04-27T19:05:55.210Z,99.90
2019-04-27T19:08:24.963Z,99.90
2019-04-27T19:10:55.959Z,99.90
2019-04-27T19:13:25.615Z,99.90
2019-04-27T19:15:55.211Z,99.90
2019-04-27T19:18:24.830Z,99.90
2019-04-27T19:20:55.652Z,99.90
2019-04-27T19:23:25.297Z,99.90
2019-04-27T19:26:20.517Z,99.90
2019-04-27T19:29:10.024Z,99.90
2019-04-27T19:31:44.255Z,99.90
2019-04-27T19:34:13.838Z,99.90
2019-04-27T19:36:45.255Z,99.90
2019-04-27T19:39:15.375Z,99.90
2019-04-27T19:41:56.703Z,99.90
2019-04-27T19:44:16.298Z,99.90
2019-04-27T19:46:50.400Z,99.90
2019-04-27T19:49:20.004Z,99.90
2019-04-27T19:51:49.649Z,99.90
2019-04-27T19:54:19.215Z,99.90
2019-04-27T19:56:51.221Z,99.90
2019-04-27T19:59:28.152Z,99.90
2019-04-27T20:02:00.287Z,99.90
2019-04-27T20:04:34.532Z,99.90
2019-04-27T20:07:04.162Z,99.90
2019-04-27T20:09:49.921Z,99.90
2019-04-27T20:12:21.264Z,99.90
2019-04-27T20:14:57.211Z,99.90
2019-04-27T20:17:28.063Z,99.90
2019-04-27T20:19:58.013Z,99.90
2019-04-27T20:22:27.876Z,99.90
2019-04-27T20:24:57.461Z,99.90
2019-04-27T20:27:27.028Z,99.90
2019-04-27T20:29:56.797Z,99.90
2019-04-27T20:32:26.394Z,99.90
2019-04-27T20:34:56.006Z,99.90
2019-04-27T20:37:25.647Z,99.90
2019-04-27T20:39:55.284Z,99.90
2019-04-27T20:42:24.958Z,99.90
2019-04-27T20:44:54.642Z,99.90
2019-04-27T20:47:24.227Z,99.90
2019-04-27T20:49:53.889Z,99.90
2019-04-27T20:52:30.793Z,99.90
2019-04-27T20:55:01.511Z,99.90
2019-04-27T20:57:32.636Z,99.90
2019-04-27T21:00:02.280Z,99.90
2019-04-27T21:02:41.837Z,99.90
2019-04-27T21:05:33.386Z,99.90
2019-04-27T21:08:06.980Z,99.90
2019-04-27T21:10:35.667Z,99.90
2019-04-27T21:13:05.326Z,99.90
2019-04-27T21:15:34.963Z,99.90
2019-04-27T21:18:04.673Z,99.90
2019-04-27T21:20:34.532Z,99.90
2019-04-27T21:23:04.090Z,99.90
2019-04-27T21:25:33.797Z,99.90
2019-04-27T21:28:15.488Z,99.90
2019-04-27T21:30:34.712Z,99.90
2019-04-27T21:33:04.320Z,99.90
2019-04-27T21:35:34.816Z,99.90
2019-04-27T21:38:04.768Z,99.90
2019-04-27T21:40:34.565Z,99.90
2019-04-27T21:43:04.271Z,99.90
2019-04-27T21:45:33.911Z,99.90
2019-04-27T21:48:03.497Z,99.90
2019-04-27T21:50:33.113Z,99.90
2019-04-27T21:53:11.771Z,99.90
2019-04-27T21:55:42.177Z,99.90
2019-04-27T21:58:11.899Z,99.90
2019-04-27T22:00:59.537Z,99.90
2019-04-27T22:03:31.677Z,99.90
2019-04-27T22:06:01.760Z,99.90
2019-04-27T22:08:31.912Z,99.90
2019-04-27T22:11:01.681Z,99.90
2019-04-27T22:13:31.325Z,99.90
2019-04-27T22:16:01.008Z,99.90
2019-04-27T22:18:31.441Z,99.90
2019-04-27T22:21:01.494Z,99.90
2019-04-27T22:24:00.874Z,99.90
2019-04-27T22:26:31.474Z,99.90
2019-04-27T22:29:01.635Z,99.90
2019-04-27T22:31:31.481Z,99.90
2019-04-27T22:34:01.871Z,99.90
2019-04-27T22:36:31.482Z,99.90
2019-04-27T22:39:08.304Z,99.90
2019-04-27T22:42:08.285Z,99.90
2019-04-27T22:44:47.202Z,99.90
2019-04-27T22:47:16.773Z,99.90
2019-04-27T22:49:46.355Z,99.90
2019-04-27T22:52:17.009Z,99.90
2019-04-27T22:54:46.705Z,99.90
2019-04-27T22:57:23.284Z,99.90
2019-04-27T23:00:06.511Z,99.90
2019-04-27T23:02:57.971Z,99.90
2019-04-27T23:05:27.968Z,99.90
2019-04-27T23:07:57.587Z,99.90
2019-04-27T23:10:27.190Z,99.90
2019-04-27T23:12:56.813Z,99.90
2019-04-27T23:15:32.480Z,99.90
2019-04-27T23:18:02.281Z,99.90
2019-04-27T23:20:32.182Z,99.90
2019-04-27T23:23:02.899Z,99.90
2019-04-27T23:25:32.690Z,99.90
2019-04-27T23:28:02.278Z,99.90
2019-04-27T23:30:45.564Z,99.90
2019-04-27T23:33:15.133Z,99.90
2019-04-27T23:35:44.818Z,99.90
2019-04-27T23:38:17.779Z,99.90
2019-04-27T23:40:45.770Z,99.90
2019-04-27T23:43:15.375Z,99.90
2019-04-27T23:45:45.125Z,99.90
2019-04-27T23:48:14.870Z,99.90
2019-04-27T23:50:46.103Z,99.90
2019-04-27T23:53:21.725Z,99.90
2019-04-27T23:55:51.197Z,99.90
2019-04-27T23:58:20.879Z,99.90
